This is the latest recevied weather packets stored in our database for station/object ZR6G-15. If no packets are shown the sender has not sent any weather packets the latest 1 day(s).
| Time | Temp. | Humidity | Pressure | Rain* | Wind** | Luminosity | Snow |
|---|---|---|---|---|---|---|---|
| 1778056442 | 13.89° C | 21% | 1008.8 hPa | - | - | - | - |
| 1778055233 | 13.89° C | 25% | 1009.4 hPa | - | - | - | - |
| 1778054628 | 11.67° C | 34% | 1010.1 hPa | - | - | - | - |
| 1778052210 | 10° C | 41% | 1011.1 hPa | - | - | - | - |
| 1778050397 | 8.89° C | 42% | 1011.7 hPa | - | - | - | - |
| 1778049792 | 8.89° C | 43% | 1011.9 hPa | - | - | - | - |
| 1778048583 | 8.89° C | 44% | 1011.9 hPa | - | - | - | - |
| 1778047978 | 7.78° C | 44% | 1011.9 hPa | - | - | - | - |
| 1778046769 | 7.78° C | 45% | 1011.7 hPa | - | - | - | - |
| 1778046164 | 7.78° C | 46% | 1012.1 hPa | - | - | - | - |
| 1778044955 | 7.78° C | 46% | 1012 hPa | - | - | - | - |
| 1778044350 | 7.78° C | 47% | 1012.1 hPa | - | - | - | - |
| 1778043746 | 7.78° C | 47% | 1012 hPa | - | - | - | - |
| 1778042537 | 7.78° C | 47% | 1011.7 hPa | - | - | - | - |
| 1778041933 | 7.78° C | 48% | 1011.7 hPa | - | - | - | - |
| 1778041328 | 7.78° C | 47% | 1011.4 hPa | - | - | - | - |
| 1778040119 | 8.89° C | 47% | 1010.8 hPa | - | - | - | - |
| 1778039515 | 8.89° C | 48% | 1010.4 hPa | - | - | - | - |
| 1778038910 | 8.89° C | 49% | 1010.4 hPa | - | - | - | - |
| 1778037701 | 8.89° C | 49% | 1010.4 hPa | - | - | - | - |
| 1778037096 | 8.89° C | 49% | 1010.4 hPa | - | - | - | - |
| 1778035887 | 8.89° C | 50% | 1010.6 hPa | - | - | - | - |
| 1778035282 | 8.89° C | 49% | 1010.5 hPa | - | - | - | - |
| 1778034678 | 8.89° C | 49% | 1010.4 hPa | - | - | - | - |
| 1778034073 | 8.89° C | 47% | 1009.9 hPa | - | - | - | - |
* Rain since midnight (hover to see other rain measurements)
** Current wind speed in m/s (hover to see current wind gust speed)